sensor_id;sensor_type;location;lat;lon;timestamp;temperature;humidity
10245;DHT22;5167;52.164;10.530;2023-03-13T00:00:55;10.10;43.10
10245;DHT22;5167;52.164;10.530;2023-03-13T00:03:21;10.10;43.50
10245;DHT22;5167;52.164;10.530;2023-03-13T00:05:47;10.10;44.40
10245;DHT22;5167;52.164;10.530;2023-03-13T00:08:12;10.20;44.10
10245;DHT22;5167;52.164;10.530;2023-03-13T00:10:39;10.20;43.40
10245;DHT22;5167;52.164;10.530;2023-03-13T00:13:05;10.30;43.30
10245;DHT22;5167;52.164;10.530;2023-03-13T00:15:31;10.30;43.20
10245;DHT22;5167;52.164;10.530;2023-03-13T00:17:56;10.30;43.50
10245;DHT22;5167;52.164;10.530;2023-03-13T00:20:22;10.30;43.40
10245;DHT22;5167;52.164;10.530;2023-03-13T00:22:47;10.40;42.90
10245;DHT22;5167;52.164;10.530;2023-03-13T00:25:13;10.30;43.10
10245;DHT22;5167;52.164;10.530;2023-03-13T00:27:38;10.30;42.50
10245;DHT22;5167;52.164;10.530;2023-03-13T00:30:04;10.30;42.90
10245;DHT22;5167;52.164;10.530;2023-03-13T00:32:30;10.40;42.70
10245;DHT22;5167;52.164;10.530;2023-03-13T00:34:55;10.40;43.00
10245;DHT22;5167;52.164;10.530;2023-03-13T00:37:21;10.40;42.50
10245;DHT22;5167;52.164;10.530;2023-03-13T00:39:46;10.40;42.30
10245;DHT22;5167;52.164;10.530;2023-03-13T00:42:12;10.50;42.20
10245;DHT22;5167;52.164;10.530;2023-03-13T00:44:37;10.40;41.90
10245;DHT22;5167;52.164;10.530;2023-03-13T00:47:03;10.50;42.00
10245;DHT22;5167;52.164;10.530;2023-03-13T00:49:30;10.50;41.70
10245;DHT22;5167;52.164;10.530;2023-03-13T00:51:55;10.50;40.50
10245;DHT22;5167;52.164;10.530;2023-03-13T00:54:21;10.70;41.60
10245;DHT22;5167;52.164;10.530;2023-03-13T00:56:46;10.60;40.40
10245;DHT22;5167;52.164;10.530;2023-03-13T00:59:13;10.50;40.50
10245;DHT22;5167;52.164;10.530;2023-03-13T01:01:38;10.60;40.20
10245;DHT22;5167;52.164;10.530;2023-03-13T01:04:07;10.60;39.80
10245;DHT22;5167;52.164;10.530;2023-03-13T01:06:34;10.70;39.60
10245;DHT22;5167;52.164;10.530;2023-03-13T01:09:00;10.60;39.30
10245;DHT22;5167;52.164;10.530;2023-03-13T01:11:31;10.60;39.80
10245;DHT22;5167;52.164;10.530;2023-03-13T01:13:59;10.60;39.50
10245;DHT22;5167;52.164;10.530;2023-03-13T01:16:26;10.70;38.80
10245;DHT22;5167;52.164;10.530;2023-03-13T01:18:54;10.70;38.70
10245;DHT22;5167;52.164;10.530;2023-03-13T01:21:21;10.70;38.30
10245;DHT22;5167;52.164;10.530;2023-03-13T01:23:48;10.70;39.00
10245;DHT22;5167;52.164;10.530;2023-03-13T01:26:14;10.70;37.70
10245;DHT22;5167;52.164;10.530;2023-03-13T01:28:40;10.70;37.40
10245;DHT22;5167;52.164;10.530;2023-03-13T01:33:46;10.60;37.30
10245;DHT22;5167;52.164;10.530;2023-03-13T01:36:12;10.60;37.20
10245;DHT22;5167;52.164;10.530;2023-03-13T01:38:38;10.70;37.30
10245;DHT22;5167;52.164;10.530;2023-03-13T01:41:05;10.70;36.60
10245;DHT22;5167;52.164;10.530;2023-03-13T01:43:33;10.70;37.10
10245;DHT22;5167;52.164;10.530;2023-03-13T01:48:46;10.70;36.80
10245;DHT22;5167;52.164;10.530;2023-03-13T01:54:06;10.90;37.10
10245;DHT22;5167;52.164;10.530;2023-03-13T01:56:51;10.80;35.80
10245;DHT22;5167;52.164;10.530;2023-03-13T01:59:22;10.80;35.70
10245;DHT22;5167;52.164;10.530;2023-03-13T02:01:50;10.90;36.00
10245;DHT22;5167;52.164;10.530;2023-03-13T02:04:18;10.90;35.20
10245;DHT22;5167;52.164;10.530;2023-03-13T02:06:46;10.90;35.20
10245;DHT22;5167;52.164;10.530;2023-03-13T02:09:17;10.90;36.00
10245;DHT22;5167;52.164;10.530;2023-03-13T02:14:26;10.90;35.80
10245;DHT22;5167;52.164;10.530;2023-03-13T02:16:54;11.00;35.30
10245;DHT22;5167;52.164;10.530;2023-03-13T02:27:36;11.00;34.70
10245;DHT22;5167;52.164;10.530;2023-03-13T02:30:03;11.00;34.60
10245;DHT22;5167;52.164;10.530;2023-03-13T02:32:30;11.10;34.60
10245;DHT22;5167;52.164;10.530;2023-03-13T02:35:00;11.10;34.60
10245;DHT22;5167;52.164;10.530;2023-03-13T02:37:28;11.10;35.10
10245;DHT22;5167;52.164;10.530;2023-03-13T02:39:55;11.10;34.80
10245;DHT22;5167;52.164;10.530;2023-03-13T02:42:23;11.20;35.10
10245;DHT22;5167;52.164;10.530;2023-03-13T02:44:49;11.20;35.30
10245;DHT22;5167;52.164;10.530;2023-03-13T02:47:18;11.20;35.60
10245;DHT22;5167;52.164;10.530;2023-03-13T02:49:44;11.20;36.20
10245;DHT22;5167;52.164;10.530;2023-03-13T02:52:26;11.30;36.30
10245;DHT22;5167;52.164;10.530;2023-03-13T02:54:58;11.10;36.90
10245;DHT22;5167;52.164;10.530;2023-03-13T02:57:25;11.10;37.10
10245;DHT22;5167;52.164;10.530;2023-03-13T02:59:50;11.10;37.40
10245;DHT22;5167;52.164;10.530;2023-03-13T03:02:16;11.20;38.00
10245;DHT22;5167;52.164;10.530;2023-03-13T03:04:41;11.10;38.50
10245;DHT22;5167;52.164;10.530;2023-03-13T03:07:07;11.10;39.30
10245;DHT22;5167;52.164;10.530;2023-03-13T03:09:32;11.10;39.90
10245;DHT22;5167;52.164;10.530;2023-03-13T03:11:58;11.10;41.70
10245;DHT22;5167;52.164;10.530;2023-03-13T03:14:23;11.00;41.50
10245;DHT22;5167;52.164;10.530;2023-03-13T03:16:49;11.00;42.50
10245;DHT22;5167;52.164;10.530;2023-03-13T03:19:14;11.00;42.80
10245;DHT22;5167;52.164;10.530;2023-03-13T03:21:40;11.10;43.40
10245;DHT22;5167;52.164;10.530;2023-03-13T03:24:06;11.00;43.40
10245;DHT22;5167;52.164;10.530;2023-03-13T03:26:31;11.00;43.60
10245;DHT22;5167;52.164;10.530;2023-03-13T03:28:57;11.00;43.70
10245;DHT22;5167;52.164;10.530;2023-03-13T03:31:23;11.00;44.10
10245;DHT22;5167;52.164;10.530;2023-03-13T03:33:48;11.10;43.90
10245;DHT22;5167;52.164;10.530;2023-03-13T03:36:16;11.10;44.00
10245;DHT22;5167;52.164;10.530;2023-03-13T03:38:43;11.00;44.50
10245;DHT22;5167;52.164;10.530;2023-03-13T03:41:10;10.90;44.90
10245;DHT22;5167;52.164;10.530;2023-03-13T03:43:36;11.00;45.10
10245;DHT22;5167;52.164;10.530;2023-03-13T03:46:01;11.10;45.00
10245;DHT22;5167;52.164;10.530;2023-03-13T03:48:28;10.90;44.50
10245;DHT22;5167;52.164;10.530;2023-03-13T03:50:54;11.00;44.90
10245;DHT22;5167;52.164;10.530;2023-03-13T03:53:20;11.00;46.10
10245;DHT22;5167;52.164;10.530;2023-03-13T03:55:45;11.00;45.10
10245;DHT22;5167;52.164;10.530;2023-03-13T03:58:11;11.00;45.60
10245;DHT22;5167;52.164;10.530;2023-03-13T04:00:37;11.00;45.80
10245;DHT22;5167;52.164;10.530;2023-03-13T04:03:02;11.00;45.40
10245;DHT22;5167;52.164;10.530;2023-03-13T04:05:28;11.00;46.10
10245;DHT22;5167;52.164;10.530;2023-03-13T04:07:53;11.00;46.20
10245;DHT22;5167;52.164;10.530;2023-03-13T04:10:19;11.00;45.90
10245;DHT22;5167;52.164;10.530;2023-03-13T04:12:45;11.00;46.60
10245;DHT22;5167;52.164;10.530;2023-03-13T04:15:11;10.90;46.60
10245;DHT22;5167;52.164;10.530;2023-03-13T04:17:36;10.90;47.30
10245;DHT22;5167;52.164;10.530;2023-03-13T04:20:02;10.90;47.30
10245;DHT22;5167;52.164;10.530;2023-03-13T04:22:29;10.90;47.60
10245;DHT22;5167;52.164;10.530;2023-03-13T04:24:54;11.00;48.00
10245;DHT22;5167;52.164;10.530;2023-03-13T04:27:20;11.00;48.10
10245;DHT22;5167;52.164;10.530;2023-03-13T04:29:45;11.00;48.00
10245;DHT22;5167;52.164;10.530;2023-03-13T04:32:11;11.00;48.30
10245;DHT22;5167;52.164;10.530;2023-03-13T04:34:36;11.20;48.50
10245;DHT22;5167;52.164;10.530;2023-03-13T04:37:02;11.00;48.10
10245;DHT22;5167;52.164;10.530;2023-03-13T04:39:27;11.00;48.70
10245;DHT22;5167;52.164;10.530;2023-03-13T04:41:54;11.00;48.60
10245;DHT22;5167;52.164;10.530;2023-03-13T04:44:20;10.90;48.70
10245;DHT22;5167;52.164;10.530;2023-03-13T04:46:46;11.00;49.10
10245;DHT22;5167;52.164;10.530;2023-03-13T04:49:12;10.90;48.90
10245;DHT22;5167;52.164;10.530;2023-03-13T04:51:39;10.90;49.40
10245;DHT22;5167;52.164;10.530;2023-03-13T04:54:05;10.90;49.90
10245;DHT22;5167;52.164;10.530;2023-03-13T04:56:30;11.00;49.10
10245;DHT22;5167;52.164;10.530;2023-03-13T04:58:56;11.00;49.90
10245;DHT22;5167;52.164;10.530;2023-03-13T05:01:21;10.90;50.20
10245;DHT22;5167;52.164;10.530;2023-03-13T05:03:47;10.90;49.80
10245;DHT22;5167;52.164;10.530;2023-03-13T05:06:12;10.90;50.70
10245;DHT22;5167;52.164;10.530;2023-03-13T05:08:38;11.00;50.90
10245;DHT22;5167;52.164;10.530;2023-03-13T05:11:04;10.90;51.10
10245;DHT22;5167;52.164;10.530;2023-03-13T05:13:30;10.90;51.80
10245;DHT22;5167;52.164;10.530;2023-03-13T05:15:55;10.80;52.90
10245;DHT22;5167;52.164;10.530;2023-03-13T05:18:21;10.80;53.50
10245;DHT22;5167;52.164;10.530;2023-03-13T05:20:46;10.90;55.70
10245;DHT22;5167;52.164;10.530;2023-03-13T05:23:12;10.90;55.80
10245;DHT22;5167;52.164;10.530;2023-03-13T05:25:37;10.90;57.30
10245;DHT22;5167;52.164;10.530;2023-03-13T05:28:03;10.80;58.20
10245;DHT22;5167;52.164;10.530;2023-03-13T05:30:29;10.90;59.30
10245;DHT22;5167;52.164;10.530;2023-03-13T05:32:54;10.90;60.00
10245;DHT22;5167;52.164;10.530;2023-03-13T05:35:20;11.00;60.30
10245;DHT22;5167;52.164;10.530;2023-03-13T05:37:46;10.90;61.90
10245;DHT22;5167;52.164;10.530;2023-03-13T05:40:12;11.00;62.60
10245;DHT22;5167;52.164;10.530;2023-03-13T05:42:38;11.10;62.90
10245;DHT22;5167;52.164;10.530;2023-03-13T05:45:04;11.00;63.40
10245;DHT22;5167;52.164;10.530;2023-03-13T05:47:29;11.10;63.90
10245;DHT22;5167;52.164;10.530;2023-03-13T05:49:55;11.00;64.20
10245;DHT22;5167;52.164;10.530;2023-03-13T05:52:20;11.00;65.40
10245;DHT22;5167;52.164;10.530;2023-03-13T05:54:46;11.00;66.10
10245;DHT22;5167;52.164;10.530;2023-03-13T05:57:11;11.10;67.30
10245;DHT22;5167;52.164;10.530;2023-03-13T05:59:37;11.00;69.00
10245;DHT22;5167;52.164;10.530;2023-03-13T06:02:02;11.10;69.40
10245;DHT22;5167;52.164;10.530;2023-03-13T06:04:28;11.10;71.10
10245;DHT22;5167;52.164;10.530;2023-03-13T06:06:53;11.10;70.90
10245;DHT22;5167;52.164;10.530;2023-03-13T06:09:20;11.00;72.60
10245;DHT22;5167;52.164;10.530;2023-03-13T06:11:45;11.20;73.30
10245;DHT22;5167;52.164;10.530;2023-03-13T06:14:11;11.10;73.50
10245;DHT22;5167;52.164;10.530;2023-03-13T06:16:36;11.20;73.60
10245;DHT22;5167;52.164;10.530;2023-03-13T06:19:02;11.20;73.40
10245;DHT22;5167;52.164;10.530;2023-03-13T06:21:28;11.20;73.00
10245;DHT22;5167;52.164;10.530;2023-03-13T06:23:54;11.30;73.60
10245;DHT22;5167;52.164;10.530;2023-03-13T06:26:20;11.30;73.40
10245;DHT22;5167;52.164;10.530;2023-03-13T06:28:46;11.40;73.00
10245;DHT22;5167;52.164;10.530;2023-03-13T06:31:12;11.50;72.00
10245;DHT22;5167;52.164;10.530;2023-03-13T06:33:38;11.50;71.10
10245;DHT22;5167;52.164;10.530;2023-03-13T06:36:04;11.50;70.50
10245;DHT22;5167;52.164;10.530;2023-03-13T06:38:30;11.50;70.00
10245;DHT22;5167;52.164;10.530;2023-03-13T06:40:55;11.60;70.60
10245;DHT22;5167;52.164;10.530;2023-03-13T06:43:21;11.60;69.90
10245;DHT22;5167;52.164;10.530;2023-03-13T06:45:46;11.60;69.50
10245;DHT22;5167;52.164;10.530;2023-03-13T06:48:12;11.60;69.30
10245;DHT22;5167;52.164;10.530;2023-03-13T06:50:38;11.70;69.20
10245;DHT22;5167;52.164;10.530;2023-03-13T06:53:04;11.80;69.20
10245;DHT22;5167;52.164;10.530;2023-03-13T06:55:30;11.70;69.20
10245;DHT22;5167;52.164;10.530;2023-03-13T06:57:55;11.80;68.70
10245;DHT22;5167;52.164;10.530;2023-03-13T07:00:21;11.90;69.70
10245;DHT22;5167;52.164;10.530;2023-03-13T07:02:47;11.80;69.50
10245;DHT22;5167;52.164;10.530;2023-03-13T07:05:13;11.90;69.40
10245;DHT22;5167;52.164;10.530;2023-03-13T07:07:42;11.90;69.10
10245;DHT22;5167;52.164;10.530;2023-03-13T07:10:09;11.90;68.60
10245;DHT22;5167;52.164;10.530;2023-03-13T07:12:36;11.90;68.80
10245;DHT22;5167;52.164;10.530;2023-03-13T07:15:02;11.90;69.70
10245;DHT22;5167;52.164;10.530;2023-03-13T07:17:28;11.90;69.90
10245;DHT22;5167;52.164;10.530;2023-03-13T07:19:53;11.90;70.10
10245;DHT22;5167;52.164;10.530;2023-03-13T07:22:19;11.90;70.50
10245;DHT22;5167;52.164;10.530;2023-03-13T07:24:44;12.00;70.20
10245;DHT22;5167;52.164;10.530;2023-03-13T07:27:10;12.00;70.70
10245;DHT22;5167;52.164;10.530;2023-03-13T07:29:35;12.00;71.00
10245;DHT22;5167;52.164;10.530;2023-03-13T07:32:01;11.90;71.40
10245;DHT22;5167;52.164;10.530;2023-03-13T07:34:26;12.00;71.00
10245;DHT22;5167;52.164;10.530;2023-03-13T07:36:52;12.00;71.00
10245;DHT22;5167;52.164;10.530;2023-03-13T07:39:17;12.00;71.00
10245;DHT22;5167;52.164;10.530;2023-03-13T07:41:43;12.00;71.70
10245;DHT22;5167;52.164;10.530;2023-03-13T07:44:08;12.00;72.30
10245;DHT22;5167;52.164;10.530;2023-03-13T07:46:34;12.00;71.70
10245;DHT22;5167;52.164;10.530;2023-03-13T07:48:59;12.10;72.00
10245;DHT22;5167;52.164;10.530;2023-03-13T07:51:26;12.30;72.10
10245;DHT22;5167;52.164;10.530;2023-03-13T07:53:52;12.10;72.00
10245;DHT22;5167;52.164;10.530;2023-03-13T07:56:20;12.20;71.90
10245;DHT22;5167;52.164;10.530;2023-03-13T07:58:46;12.20;71.30
10245;DHT22;5167;52.164;10.530;2023-03-13T08:01:17;12.30;71.40
10245;DHT22;5167;52.164;10.530;2023-03-13T08:03:44;12.40;69.70
10245;DHT22;5167;52.164;10.530;2023-03-13T08:06:13;12.40;69.70
10245;DHT22;5167;52.164;10.530;2023-03-13T08:08:39;12.50;69.40
10245;DHT22;5167;52.164;10.530;2023-03-13T08:11:08;12.60;69.30
10245;DHT22;5167;52.164;10.530;2023-03-13T08:13:34;12.60;67.50
10245;DHT22;5167;52.164;10.530;2023-03-13T08:16:02;12.60;68.30
10245;DHT22;5167;52.164;10.530;2023-03-13T08:18:27;12.60;67.50
10245;DHT22;5167;52.164;10.530;2023-03-13T08:20:53;12.60;67.50
10245;DHT22;5167;52.164;10.530;2023-03-13T08:23:18;12.60;67.40
10245;DHT22;5167;52.164;10.530;2023-03-13T08:25:44;12.70;67.80
10245;DHT22;5167;52.164;10.530;2023-03-13T08:28:09;12.70;67.30
10245;DHT22;5167;52.164;10.530;2023-03-13T08:30:35;12.70;67.20
10245;DHT22;5167;52.164;10.530;2023-03-13T08:33:01;12.70;67.50
10245;DHT22;5167;52.164;10.530;2023-03-13T08:35:28;12.80;67.10
10245;DHT22;5167;52.164;10.530;2023-03-13T08:37:53;12.80;68.40
10245;DHT22;5167;52.164;10.530;2023-03-13T08:40:19;12.80;67.90
10245;DHT22;5167;52.164;10.530;2023-03-13T08:42:44;12.80;67.50
10245;DHT22;5167;52.164;10.530;2023-03-13T08:45:10;12.80;67.90
10245;DHT22;5167;52.164;10.530;2023-03-13T08:47:35;12.90;68.10
10245;DHT22;5167;52.164;10.530;2023-03-13T08:50:01;13.00;68.70
10245;DHT22;5167;52.164;10.530;2023-03-13T08:52:27;13.00;68.30
10245;DHT22;5167;52.164;10.530;2023-03-13T08:54:52;13.10;67.80
10245;DHT22;5167;52.164;10.530;2023-03-13T08:57:18;13.00;67.60
10245;DHT22;5167;52.164;10.530;2023-03-13T08:59:43;13.10;67.80
10245;DHT22;5167;52.164;10.530;2023-03-13T09:02:09;13.20;67.30
10245;DHT22;5167;52.164;10.530;2023-03-13T09:04:34;13.30;66.70
10245;DHT22;5167;52.164;10.530;2023-03-13T09:07:00;13.30;65.90
10245;DHT22;5167;52.164;10.530;2023-03-13T09:09:25;13.30;66.60
10245;DHT22;5167;52.164;10.530;2023-03-13T09:11:51;13.30;66.80
10245;DHT22;5167;52.164;10.530;2023-03-13T09:14:16;13.40;66.20
10245;DHT22;5167;52.164;10.530;2023-03-13T09:16:42;13.50;65.70
10245;DHT22;5167;52.164;10.530;2023-03-13T09:19:09;13.50;65.10
10245;DHT22;5167;52.164;10.530;2023-03-13T09:21:35;13.70;65.20
10245;DHT22;5167;52.164;10.530;2023-03-13T09:24:01;13.50;64.90
10245;DHT22;5167;52.164;10.530;2023-03-13T09:26:27;13.60;65.00
10245;DHT22;5167;52.164;10.530;2023-03-13T09:28:53;13.70;64.60
10245;DHT22;5167;52.164;10.530;2023-03-13T09:31:24;13.80;64.30
10245;DHT22;5167;52.164;10.530;2023-03-13T09:33:50;13.90;63.80
10245;DHT22;5167;52.164;10.530;2023-03-13T09:36:17;14.10;62.20
10245;DHT22;5167;52.164;10.530;2023-03-13T09:38:43;14.10;62.00
10245;DHT22;5167;52.164;10.530;2023-03-13T09:44:16;14.40;59.30
10245;DHT22;5167;52.164;10.530;2023-03-13T09:51:57;14.70;56.30
10245;DHT22;5167;52.164;10.530;2023-03-13T09:54:28;14.70;55.60
10245;DHT22;5167;52.164;10.530;2023-03-13T09:59:35;14.70;53.50
10245;DHT22;5167;52.164;10.530;2023-03-13T10:02:29;14.70;53.70
10245;DHT22;5167;52.164;10.530;2023-03-13T10:05:04;14.80;53.00
10245;DHT22;5167;52.164;10.530;2023-03-13T10:07:32;14.80;53.60
10245;DHT22;5167;52.164;10.530;2023-03-13T10:10:00;15.10;51.40
10245;DHT22;5167;52.164;10.530;2023-03-13T10:12:33;15.10;50.70
10245;DHT22;5167;52.164;10.530;2023-03-13T10:17:35;15.20;50.60
10245;DHT22;5167;52.164;10.530;2023-03-13T10:22:41;15.30;47.50
10245;DHT22;5167;52.164;10.530;2023-03-13T10:27:57;15.40;47.00
10245;DHT22;5167;52.164;10.530;2023-03-13T10:30:31;15.50;45.60
10245;DHT22;5167;52.164;10.530;2023-03-13T10:33:24;15.40;45.10
10245;DHT22;5167;52.164;10.530;2023-03-13T10:36:07;15.40;45.80
10245;DHT22;5167;52.164;10.530;2023-03-13T10:38:44;15.40;44.70
10245;DHT22;5167;52.164;10.530;2023-03-13T10:43:52;15.40;45.40
10245;DHT22;5167;52.164;10.530;2023-03-13T10:46:27;15.40;45.10
10245;DHT22;5167;52.164;10.530;2023-03-13T10:48:54;15.30;44.90
10245;DHT22;5167;52.164;10.530;2023-03-13T10:51:28;15.30;45.30
10245;DHT22;5167;52.164;10.530;2023-03-13T10:53:55;15.50;45.00
10245;DHT22;5167;52.164;10.530;2023-03-13T10:56:30;15.50;44.70
10245;DHT22;5167;52.164;10.530;2023-03-13T10:58:56;15.50;44.10
10245;DHT22;5167;52.164;10.530;2023-03-13T11:01:40;15.40;44.50
10245;DHT22;5167;52.164;10.530;2023-03-13T11:04:27;15.60;44.60
10245;DHT22;5167;52.164;10.530;2023-03-13T11:07:02;15.50;43.90
10245;DHT22;5167;52.164;10.530;2023-03-13T11:09:28;15.50;44.70
10245;DHT22;5167;52.164;10.530;2023-03-13T11:12:00;15.40;45.00
10245;DHT22;5167;52.164;10.530;2023-03-13T11:14:26;15.50;45.70
10245;DHT22;5167;52.164;10.530;2023-03-13T11:19:46;15.60;46.00
10245;DHT22;5167;52.164;10.530;2023-03-13T11:22:24;15.60;46.00
10245;DHT22;5167;52.164;10.530;2023-03-13T11:25:14;15.70;46.40
10245;DHT22;5167;52.164;10.530;2023-03-13T11:33:22;15.70;47.00
10245;DHT22;5167;52.164;10.530;2023-03-13T11:36:14;15.80;46.00
10245;DHT22;5167;52.164;10.530;2023-03-13T11:38:47;15.90;46.70
10245;DHT22;5167;52.164;10.530;2023-03-13T11:41:37;16.00;46.20
10245;DHT22;5167;52.164;10.530;2023-03-13T11:50:14;16.20;43.10
10245;DHT22;5167;52.164;10.530;2023-03-13T11:58:53;16.50;42.00
10245;DHT22;5167;52.164;10.530;2023-03-13T12:01:27;16.40;40.40
10245;DHT22;5167;52.164;10.530;2023-03-13T12:06:43;16.40;39.80
10245;DHT22;5167;52.164;10.530;2023-03-13T12:09:44;16.40;40.30
10245;DHT22;5167;52.164;10.530;2023-03-13T12:15:14;16.50;39.70
10245;DHT22;5167;52.164;10.530;2023-03-13T12:17:47;16.60;39.00
10245;DHT22;5167;52.164;10.530;2023-03-13T12:20:33;16.70;38.70
10245;DHT22;5167;52.164;10.530;2023-03-13T12:25:48;16.90;36.80
10245;DHT22;5167;52.164;10.530;2023-03-13T12:31:10;17.10;36.30
10245;DHT22;5167;52.164;10.530;2023-03-13T12:36:52;17.30;35.80
10245;DHT22;5167;52.164;10.530;2023-03-13T12:39:50;17.30;34.10
10245;DHT22;5167;52.164;10.530;2023-03-13T12:42:56;17.30;34.60
10245;DHT22;5167;52.164;10.530;2023-03-13T12:45:24;17.40;34.50
10245;DHT22;5167;52.164;10.530;2023-03-13T12:48:06;17.40;33.30
10245;DHT22;5167;52.164;10.530;2023-03-13T12:50:41;17.40;32.00
10245;DHT22;5167;52.164;10.530;2023-03-13T12:53:40;17.40;32.80
10245;DHT22;5167;52.164;10.530;2023-03-13T13:03:55;17.70;30.00
10245;DHT22;5167;52.164;10.530;2023-03-13T13:06:22;17.60;28.80
10245;DHT22;5167;52.164;10.530;2023-03-13T13:16:59;17.90;27.10
10245;DHT22;5167;52.164;10.530;2023-03-13T13:19:42;18.00;26.50
10245;DHT22;5167;52.164;10.530;2023-03-13T13:30:34;18.10;25.60
10245;DHT22;5167;52.164;10.530;2023-03-13T13:38:42;18.20;25.60
10245;DHT22;5167;52.164;10.530;2023-03-13T13:43:44;18.30;22.80
10245;DHT22;5167;52.164;10.530;2023-03-13T13:46:32;18.20;22.80
10245;DHT22;5167;52.164;10.530;2023-03-13T13:51:30;18.10;22.80
10245;DHT22;5167;52.164;10.530;2023-03-13T13:53:58;18.10;21.70
10245;DHT22;5167;52.164;10.530;2023-03-13T14:01:42;18.10;20.10
10245;DHT22;5167;52.164;10.530;2023-03-13T14:05:19;18.00;19.20
10245;DHT22;5167;52.164;10.530;2023-03-13T14:07:31;18.00;20.20
10245;DHT22;5167;52.164;10.530;2023-03-13T14:10:34;18.10;19.80
10245;DHT22;5167;52.164;10.530;2023-03-13T14:13:02;18.10;20.20
10245;DHT22;5167;52.164;10.530;2023-03-13T14:15:34;18.10;20.10
10245;DHT22;5167;52.164;10.530;2023-03-13T14:18:09;18.10;19.30
10245;DHT22;5167;52.164;10.530;2023-03-13T14:20:50;18.20;19.80
10245;DHT22;5167;52.164;10.530;2023-03-13T14:23:37;18.10;19.50
10245;DHT22;5167;52.164;10.530;2023-03-13T14:28:39;18.10;20.80
10245;DHT22;5167;52.164;10.530;2023-03-13T14:31:06;18.10;20.20
10245;DHT22;5167;52.164;10.530;2023-03-13T14:33:33;18.20;21.00
10245;DHT22;5167;52.164;10.530;2023-03-13T14:35:59;18.10;21.50
10245;DHT22;5167;52.164;10.530;2023-03-13T14:38:27;18.10;21.30
10245;DHT22;5167;52.164;10.530;2023-03-13T14:40:54;18.20;20.40
10245;DHT22;5167;52.164;10.530;2023-03-13T14:45:52;18.20;21.40
10245;DHT22;5167;52.164;10.530;2023-03-13T14:48:30;18.20;21.40
10245;DHT22;5167;52.164;10.530;2023-03-13T14:51:14;18.20;21.80
10245;DHT22;5167;52.164;10.530;2023-03-13T14:53:56;18.20;21.80
10245;DHT22;5167;52.164;10.530;2023-03-13T14:56:39;18.10;22.50
10245;DHT22;5167;52.164;10.530;2023-03-13T14:59:15;18.00;22.50
10245;DHT22;5167;52.164;10.530;2023-03-13T15:01:41;18.00;22.50
10245;DHT22;5167;52.164;10.530;2023-03-13T15:04:07;17.90;23.30
10245;DHT22;5167;52.164;10.530;2023-03-13T15:06:32;17.80;24.00
10245;DHT22;5167;52.164;10.530;2023-03-13T15:09:20;17.60;24.20
10245;DHT22;5167;52.164;10.530;2023-03-13T15:11:58;17.60;25.20
10245;DHT22;5167;52.164;10.530;2023-03-13T15:14:41;17.50;26.20
10245;DHT22;5167;52.164;10.530;2023-03-13T15:17:24;17.50;26.10
10245;DHT22;5167;52.164;10.530;2023-03-13T15:19:55;17.50;26.80
10245;DHT22;5167;52.164;10.530;2023-03-13T15:22:27;17.50;27.00
10245;DHT22;5167;52.164;10.530;2023-03-13T15:24:58;17.60;27.20
10245;DHT22;5167;52.164;10.530;2023-03-13T15:27:25;17.50;27.10
10245;DHT22;5167;52.164;10.530;2023-03-13T15:29:51;17.50;27.10
10245;DHT22;5167;52.164;10.530;2023-03-13T15:32:30;17.50;27.20
10245;DHT22;5167;52.164;10.530;2023-03-13T15:34:57;17.50;26.50
10245;DHT22;5167;52.164;10.530;2023-03-13T15:37:24;17.50;26.60
10245;DHT22;5167;52.164;10.530;2023-03-13T15:39:49;17.40;26.70
10245;DHT22;5167;52.164;10.530;2023-03-13T15:42:15;17.50;27.00
10245;DHT22;5167;52.164;10.530;2023-03-13T15:44:40;17.40;27.00
10245;DHT22;5167;52.164;10.530;2023-03-13T15:47:09;17.40;26.10
10245;DHT22;5167;52.164;10.530;2023-03-13T15:49:35;17.40;25.70
10245;DHT22;5167;52.164;10.530;2023-03-13T15:52:00;17.40;26.10
10245;DHT22;5167;52.164;10.530;2023-03-13T15:54:26;17.40;25.70
10245;DHT22;5167;52.164;10.530;2023-03-13T15:56:51;17.40;25.60
10245;DHT22;5167;52.164;10.530;2023-03-13T15:59:17;17.30;26.00
10245;DHT22;5167;52.164;10.530;2023-03-13T16:01:43;17.30;25.00
10245;DHT22;5167;52.164;10.530;2023-03-13T16:04:10;17.30;24.80
10245;DHT22;5167;52.164;10.530;2023-03-13T16:06:36;17.30;24.80
10245;DHT22;5167;52.164;10.530;2023-03-13T16:09:04;17.20;25.00
10245;DHT22;5167;52.164;10.530;2023-03-13T16:11:31;17.20;23.80
10245;DHT22;5167;52.164;10.530;2023-03-13T16:13:57;17.20;23.60
10245;DHT22;5167;52.164;10.530;2023-03-13T16:16:30;17.30;23.50
10245;DHT22;5167;52.164;10.530;2023-03-13T16:18:57;17.20;25.20
10245;DHT22;5167;52.164;10.530;2023-03-13T16:21:29;17.20;25.60
10245;DHT22;5167;52.164;10.530;2023-03-13T16:23:55;17.20;25.50
10245;DHT22;5167;52.164;10.530;2023-03-13T16:26:26;17.20;25.30
10245;DHT22;5167;52.164;10.530;2023-03-13T16:28:53;17.10;25.60
10245;DHT22;5167;52.164;10.530;2023-03-13T16:31:22;17.20;25.90
10245;DHT22;5167;52.164;10.530;2023-03-13T16:33:48;17.20;25.60
10245;DHT22;5167;52.164;10.530;2023-03-13T16:36:20;17.20;25.60
10245;DHT22;5167;52.164;10.530;2023-03-13T16:38:47;17.20;25.00
10245;DHT22;5167;52.164;10.530;2023-03-13T16:41:17;17.10;25.60
10245;DHT22;5167;52.164;10.530;2023-03-13T16:43:43;17.10;25.80
10245;DHT22;5167;52.164;10.530;2023-03-13T16:46:56;17.00;25.90
10245;DHT22;5167;52.164;10.530;2023-03-13T16:49:04;17.00;26.50
10245;DHT22;5167;52.164;10.530;2023-03-13T16:51:30;16.90;26.50
10245;DHT22;5167;52.164;10.530;2023-03-13T16:53:56;16.90;26.40
10245;DHT22;5167;52.164;10.530;2023-03-13T16:56:29;16.90;26.70
10245;DHT22;5167;52.164;10.530;2023-03-13T16:58:56;16.90;28.20
10245;DHT22;5167;52.164;10.530;2023-03-13T17:01:23;16.80;28.90
10245;DHT22;5167;52.164;10.530;2023-03-13T17:03:53;16.80;30.90
10245;DHT22;5167;52.164;10.530;2023-03-13T17:06:29;16.70;31.60
10245;DHT22;5167;52.164;10.530;2023-03-13T17:08:56;16.70;32.00
10245;DHT22;5167;52.164;10.530;2023-03-13T17:11:23;16.60;32.80
10245;DHT22;5167;52.164;10.530;2023-03-13T17:13:50;16.60;32.70
10245;DHT22;5167;52.164;10.530;2023-03-13T17:16:19;16.60;33.70
10245;DHT22;5167;52.164;10.530;2023-03-13T17:18:46;16.60;33.60
10245;DHT22;5167;52.164;10.530;2023-03-13T17:21:18;16.50;33.40
10245;DHT22;5167;52.164;10.530;2023-03-13T17:23:44;16.50;33.80
10245;DHT22;5167;52.164;10.530;2023-03-13T17:26:24;16.40;33.30
10245;DHT22;5167;52.164;10.530;2023-03-13T17:28:52;16.40;33.60
10245;DHT22;5167;52.164;10.530;2023-03-13T17:31:18;16.40;34.30
10245;DHT22;5167;52.164;10.530;2023-03-13T17:33:45;16.40;34.10
10245;DHT22;5167;52.164;10.530;2023-03-13T17:36:14;16.40;34.00
10245;DHT22;5167;52.164;10.530;2023-03-13T17:38:39;16.20;33.90
10245;DHT22;5167;52.164;10.530;2023-03-13T17:41:07;16.20;33.10